Hobby, TX

4:32 PM CST on December 18, 2014 (GMT -0600)
Hobby | Change Station
CLOSE
Current Station
Airport
Location: Houston,
Elevation: 46 ft
Nearby Weather Stations

Elev 46 ft 29.64 °N, 95.28 °W | Updated 39 minutes ago

Overcast
Overcast
70 °F
Feels Like 70 °F
N
7
Wind Variable Wind from NE

Today
High -- | Low -- °F
--% Chance of Precip.
Yesterday
High -- | Low -- °F
Precip. -- in
7:10 AM 5:25 PM
Waning Crescent, 12% visible
Pressure 30.03 in
Visibility 10.0 miles
Clouds Mostly Cloudy 1700 ft
Mostly Cloudy 2600 ft
Overcast 4200 ft
Dew Point 64 °F
Humidity 81%
Rainfall 0.21 in
Snow Depth Not available.
UV 0 out of 12
Pollen 4.40 out of 12
Air Quality Not available.
Flu Activity Not available.
METAR KHOU 182153Z 05006KT 10SM BKN017 BKN026 OVC042 21/18 A3002 RMK AO2 SLP168 T02110178

More Conditions Fewer Conditions

Pressure 30.03 in
Visibility 10.0 miles
Clouds Mostly Cloudy 1700 ft
Mostly Cloudy 2600 ft
Overcast 4200 ft
Dew Point 64 °F
Humidity 81%
Rainfall 0.21 in
Snow Depth Not available.
UV 0 out of 12
Pollen 4.40 out of 12
Air Quality Not available.
Flu Activity Not available.
METAR KHOU 182153Z 05006KT 10SM BKN017 BKN026 OVC042 21/18 A3002 RMK AO2 SLP168 T02110178

More Conditions Fewer Conditions

10-Day Weather Forecast

Almanac

Astronomy

Dec. 18, 2014 Rise Set
Actual Time
Civil Twilight
Nautical Twilight
Astronomical Twilight
Moon
Length of Visible Light
Length of Day
Tomorrow will be .
, % of the Moon is Illuminated

Today's Extremes

State Highs State Lows

Community

WunderPhotos

Upload Photos

1,779,010 photos uploaded!

WunderBlogs® & News

Nearby

Air Quality

  Air Quality AQ Index Pollutant
Not available.

Snow Depth

Station Depth Elevation

Earthquake Activity

City Distance Mag. Time & Date
Minimum magnitude displayed is 2.5.

Coastal Water Temperatures

Place Temperature

Nearby Weather Stations